createdAt,value
2019-02-22T00:00:25.543Z,35.83
2019-02-22T00:02:55.694Z,34.48
2019-02-22T00:05:25.795Z,33.18
2019-02-22T00:07:55.871Z,38.40
2019-02-22T00:10:25.967Z,34.70
2019-02-22T00:12:57.006Z,35.50
2019-02-22T00:15:27.155Z,46.58
2019-02-22T00:17:58.169Z,37.23
2019-02-22T00:20:28.285Z,38.90
2019-02-22T00:22:59.352Z,39.90
2019-02-22T00:25:29.411Z,34.03
2019-02-22T00:27:59.491Z,40.52
2019-02-22T00:30:30.831Z,34.25
2019-02-22T00:33:00.923Z,38.38
2019-02-22T00:35:43.515Z,34.55
2019-02-22T00:38:19.644Z,35.10
2019-02-22T00:40:50.753Z,38.95
2019-02-22T00:43:20.852Z,38.38
2019-02-22T00:45:51.829Z,40.70
2019-02-22T00:48:21.915Z,42.73
2019-02-22T00:50:52.907Z,39.10
2019-02-22T00:53:22.995Z,48.00
2019-02-22T00:55:53.076Z,40.85
2019-02-22T00:58:29.043Z,39.40
2019-02-22T01:01:04.191Z,41.63
2019-02-22T01:03:34.309Z,37.73
2019-02-22T01:06:04.388Z,41.42
2019-02-22T01:08:35.367Z,42.27
2019-02-22T01:11:05.754Z,39.58
2019-02-22T01:13:35.819Z,43.13
2019-02-22T01:16:13.819Z,41.75
2019-02-22T01:18:43.913Z,39.48
2019-02-22T01:21:14.971Z,37.88
2019-02-22T01:23:45.069Z,42.73
2019-02-22T01:26:15.169Z,37.25
2019-02-22T01:28:45.272Z,36.10
2019-02-22T01:31:16.244Z,40.78
2019-02-22T01:33:46.331Z,41.80
2019-02-22T01:36:23.246Z,37.40
2019-02-22T01:38:53.324Z,43.75
2019-02-22T01:41:23.443Z,37.17
2019-02-22T01:43:53.531Z,38.02
2019-02-22T01:46:23.859Z,38.95
2019-02-22T01:48:54.884Z,37.78
2019-02-22T01:51:31.742Z,40.70
2019-02-22T01:54:01.856Z,44.65
2019-02-22T01:56:32.895Z,39.70
2019-02-22T01:59:08.775Z,41.85
2019-02-22T02:01:39.049Z,44.90
2019-02-22T02:04:14.864Z,45.00
2019-02-22T02:06:46.972Z,42.17
2019-02-22T02:09:17.152Z,39.60
2019-02-22T02:11:48.265Z,43.73
2019-02-22T02:14:18.339Z,47.23
2019-02-22T02:16:51.014Z,45.58
2019-02-22T02:19:23.115Z,44.50
2019-02-22T02:21:54.115Z,46.98
2019-02-22T02:24:25.096Z,54.88
2019-02-22T02:26:55.183Z,52.03
2019-02-22T02:29:43.795Z,50.20
2019-02-22T02:32:13.887Z,54.42
2019-02-22T02:34:43.959Z,50.65
2019-02-22T02:37:14.069Z,51.23
2019-02-22T02:39:44.129Z,54.18
2019-02-22T02:42:15.180Z,53.85
2019-02-22T02:44:47.219Z,57.95
2019-02-22T02:47:17.327Z,57.53
2019-02-22T02:49:53.207Z,52.62
2019-02-22T02:52:25.207Z,59.53
2019-02-22T02:54:55.367Z,60.52
2019-02-22T02:57:26.344Z,57.33
2019-02-22T02:59:56.418Z,60.92
2019-02-22T03:02:31.240Z,58.08
2019-02-22T03:05:01.328Z,61.33
2019-02-22T03:07:44.619Z,62.88
2019-02-22T03:10:14.703Z,65.80
2019-02-22T03:12:50.527Z,66.45
2019-02-22T03:15:20.614Z,69.60
2019-02-22T03:17:51.596Z,70.87
2019-02-22T03:20:21.667Z,70.40
2019-02-22T03:22:51.754Z,66.35
2019-02-22T03:25:24.881Z,73.97
2019-02-22T03:27:55.029Z,72.22
2019-02-22T03:30:26.052Z,76.70
2019-02-22T03:32:58.139Z,70.60
2019-02-22T03:35:30.195Z,78.90
2019-02-22T03:38:01.196Z,73.05
2019-02-22T03:40:33.655Z,83.27
2019-02-22T03:43:04.103Z,78.95
2019-02-22T03:45:34.263Z,74.62
2019-02-22T03:48:04.372Z,84.95
2019-02-22T03:50:34.464Z,84.77
2019-02-22T03:53:08.854Z,75.72
2019-02-22T03:55:47.396Z,90.25
2019-02-22T03:58:17.548Z,98.05
2019-02-22T04:00:47.684Z,88.75
2019-02-22T04:03:18.727Z,83.92
2019-02-22T04:05:50.708Z,77.45
2019-02-22T04:08:24.116Z,81.32
2019-02-22T04:10:54.208Z,92.82
2019-02-22T04:13:27.341Z,91.40
2019-02-22T04:15:58.322Z,95.00
2019-02-22T04:18:29.360Z,100.00
2019-02-22T04:20:59.528Z,93.55
2019-02-22T04:23:29.616Z,89.10
2019-02-22T04:26:00.730Z,107.43
2019-02-22T04:28:31.750Z,88.22
2019-02-22T04:31:02.769Z,98.78
2019-02-22T04:33:33.845Z,98.67
2019-02-22T04:36:03.960Z,93.67
2019-02-22T04:38:34.032Z,90.62
2019-02-22T04:41:05.108Z,104.23
2019-02-22T04:43:35.183Z,94.77
2019-02-22T04:46:05.271Z,97.95
2019-02-22T04:48:36.248Z,92.60
2019-02-22T04:51:07.309Z,99.28
2019-02-22T04:53:38.353Z,101.70
2019-02-22T04:56:08.437Z,96.40
2019-02-22T04:58:38.525Z,98.80
2019-02-22T05:01:08.611Z,94.97
2019-02-22T05:03:39.806Z,99.97
2019-02-22T05:06:11.834Z,104.10
2019-02-22T05:08:42.851Z,98.33
2019-02-22T05:11:19.047Z,99.55
2019-02-22T05:13:50.091Z,104.17
2019-02-22T05:16:24.603Z,97.02
2019-02-22T05:18:54.644Z,103.10
2019-02-22T05:21:32.617Z,99.85
2019-02-22T05:24:05.707Z,99.95
2019-02-22T05:26:35.807Z,104.47
2019-02-22T05:29:16.506Z,103.60
2019-02-22T05:31:47.505Z,102.10
2019-02-22T05:34:20.603Z,95.22
2019-02-22T05:36:50.685Z,91.82
2019-02-22T05:39:27.740Z,100.05
2019-02-22T05:41:57.819Z,95.70
2019-02-22T05:44:28.042Z,90.03
2019-02-22T05:47:00.593Z,97.85
2019-02-22T05:49:31.889Z,97.40
2019-02-22T05:52:02.907Z,96.63
2019-02-22T05:54:34.972Z,85.75
2019-02-22T05:57:09.684Z,94.05
2019-02-22T05:59:43.772Z,76.15
2019-02-22T06:02:23.423Z,86.78
2019-02-22T06:04:54.489Z,89.97
2019-02-22T06:07:26.237Z,89.07
2019-02-22T06:10:08.017Z,93.42
2019-02-22T06:12:44.996Z,84.32
2019-02-22T06:15:21.167Z,74.12
2019-02-22T06:20:17.336Z,96.60
2019-02-22T06:22:49.405Z,78.37
2019-02-22T06:25:21.452Z,77.35
2019-02-22T06:28:08.568Z,81.87
2019-02-22T06:30:38.649Z,90.55
2019-02-22T06:33:08.756Z,79.55
2019-02-22T06:35:38.845Z,79.58
2019-02-22T06:38:18.107Z,75.05
2019-02-22T06:40:48.429Z,69.27
2019-02-22T06:43:18.479Z,73.17
2019-02-22T06:45:49.447Z,71.60
2019-02-22T06:48:25.286Z,73.95
2019-02-22T06:50:56.326Z,67.62
2019-02-22T06:53:27.419Z,74.20
2019-02-22T06:56:09.871Z,74.77
2019-02-22T06:58:41.955Z,81.72
2019-02-22T07:01:12.920Z,64.12
2019-02-22T07:03:44.004Z,70.95
2019-02-22T07:06:16.108Z,69.10
2019-02-22T07:08:46.275Z,66.35
2019-02-22T07:11:18.076Z,65.37
2019-02-22T07:13:48.173Z,69.32
2019-02-22T07:16:27.337Z,68.78
2019-02-22T07:18:58.475Z,66.87
2019-02-22T07:21:43.754Z,65.32
2019-02-22T07:24:07.819Z,63.35
2019-02-22T07:26:37.909Z,62.08
2019-02-22T07:29:09.996Z,57.98
2019-02-22T07:31:49.151Z,57.55
2019-02-22T07:34:19.238Z,55.45
2019-02-22T07:36:49.319Z,57.75
2019-02-22T07:39:27.740Z,58.90
2019-02-22T07:42:05.316Z,51.33
2019-02-22T07:44:41.480Z,60.20
2019-02-22T07:47:12.475Z,50.80
2019-02-22T07:49:42.539Z,45.55
2019-02-22T07:52:13.848Z,51.77
2019-02-22T07:54:43.947Z,47.50
2019-02-22T07:57:16.031Z,42.93
2019-02-22T07:59:46.144Z,52.35
2019-02-22T08:02:16.252Z,48.23
2019-02-22T08:04:49.443Z,46.83
2019-02-22T08:07:21.457Z,45.30
2019-02-22T08:09:57.452Z,50.63
2019-02-22T08:12:27.560Z,46.05
2019-02-22T08:14:59.628Z,47.05
2019-02-22T08:17:31.984Z,43.75
2019-02-22T08:20:09.600Z,43.35
2019-02-22T08:22:39.712Z,43.33
2019-02-22T08:25:10.986Z,39.30
2019-02-22T08:27:52.782Z,41.75
2019-02-22T08:30:12.995Z,36.23
2019-02-22T08:32:44.732Z,40.10
2019-02-22T08:35:14.820Z,36.73
2019-02-22T08:37:44.916Z,38.08
2019-02-22T08:40:25.599Z,38.33
2019-02-22T08:42:58.351Z,34.78
2019-02-22T08:45:30.464Z,32.17
2019-02-22T08:48:00.565Z,36.08
2019-02-22T08:50:32.542Z,37.38
2019-02-22T08:53:02.651Z,34.20
2019-02-22T08:55:38.601Z,33.05
2019-02-22T08:58:09.968Z,31.65
2019-02-22T09:00:43.040Z,31.57
2019-02-22T09:03:15.099Z,33.20
2019-02-22T09:05:50.928Z,32.30
2019-02-22T09:08:21.925Z,26.65
2019-02-22T09:11:00.536Z,25.97
2019-02-22T09:13:30.520Z,27.62
2019-02-22T09:16:00.710Z,24.00
2019-02-22T09:18:40.600Z,28.00
2019-02-22T09:21:16.847Z,28.65
2019-02-22T09:23:46.894Z,26.50
2019-02-22T09:26:22.960Z,21.77
2019-02-22T09:28:55.462Z,21.37
2019-02-22T09:31:25.080Z,25.37
2019-02-22T09:33:57.114Z,17.90
2019-02-22T09:36:27.195Z,18.43
2019-02-22T09:38:58.269Z,18.50
2019-02-22T09:41:28.372Z,18.73
2019-02-22T09:43:58.476Z,20.10
2019-02-22T09:46:39.380Z,15.37
2019-02-22T09:49:09.532Z,16.20
2019-02-22T09:51:41.539Z,17.00
2019-02-22T09:54:12.759Z,16.60
2019-02-22T09:56:51.023Z,15.37
2019-02-22T09:59:21.324Z,16.23
2019-02-22T10:01:53.273Z,15.27
2019-02-22T10:04:24.386Z,14.37
2019-02-22T10:06:55.456Z,14.03
2019-02-22T10:09:25.568Z,14.47
2019-02-22T10:11:56.636Z,13.20
2019-02-22T10:14:28.520Z,11.43
2019-02-22T10:17:01.875Z,13.50
2019-02-22T10:19:32.915Z,12.27
2019-02-22T10:22:05.032Z,10.77
2019-02-22T10:24:36.175Z,10.77
2019-02-22T10:27:06.288Z,13.40
2019-02-22T10:29:36.376Z,12.40
2019-02-22T10:32:12.803Z,10.50
2019-02-22T10:34:43.823Z,9.87
2019-02-22T10:37:13.943Z,9.83
2019-02-22T10:39:45.251Z,9.50
2019-02-22T10:42:16.265Z,11.63
2019-02-22T10:44:49.411Z,12.67
2019-02-22T10:47:20.608Z,14.83
2019-02-22T10:49:50.836Z,13.43
2019-02-22T10:52:23.082Z,10.43
2019-02-22T10:54:53.732Z,12.73
2019-02-22T10:57:26.928Z,10.20
2019-02-22T10:59:58.544Z,11.43
2019-02-22T11:02:31.361Z,12.27
2019-02-22T11:05:09.407Z,12.90
2019-02-22T11:07:46.372Z,9.83
2019-02-22T11:10:16.552Z,11.63
2019-02-22T11:12:46.655Z,11.93
2019-02-22T11:15:16.753Z,10.20
2019-02-22T11:17:47.748Z,10.87
2019-02-22T11:20:18.005Z,8.33
2019-02-22T11:22:48.125Z,10.50
2019-02-22T11:25:18.199Z,9.60
2019-02-22T11:27:48.347Z,8.05
2019-02-22T11:30:19.433Z,7.70
2019-02-22T11:32:49.601Z,7.97
2019-02-22T11:35:19.985Z,6.40
2019-02-22T11:37:51.178Z,8.57
2019-02-22T11:40:21.376Z,8.70
2019-02-22T11:42:51.490Z,8.80
2019-02-22T11:45:21.652Z,6.50
2019-02-22T11:48:09.383Z,5.07
2019-02-22T11:50:40.696Z,5.00
2019-02-22T11:53:11.712Z,4.20
2019-02-22T11:55:47.160Z,4.63
2019-02-22T11:58:18.473Z,5.70
2019-02-22T12:00:48.728Z,6.30
2019-02-22T12:03:25.316Z,5.30
2019-02-22T12:05:55.507Z,4.20
2019-02-22T12:08:25.625Z,5.30
2019-02-22T12:10:58.896Z,5.33
2019-02-22T12:13:39.912Z,5.23
2019-02-22T12:16:10.964Z,6.40
2019-02-22T12:18:41.197Z,6.13
2019-02-22T12:21:13.624Z,5.93
2019-02-22T12:23:46.515Z,4.27
2019-02-22T12:26:16.608Z,5.87
2019-02-22T12:28:47.692Z,4.17
2019-02-22T12:31:20.552Z,4.23
2019-02-22T12:34:01.433Z,8.90
2019-02-22T12:36:31.639Z,4.57
2019-02-22T12:39:05.357Z,5.10
2019-02-22T12:41:35.533Z,5.70
2019-02-22T12:44:06.812Z,4.37
2019-02-22T12:46:37.795Z,4.40
2019-02-22T12:49:14.005Z,4.70
2019-02-22T12:51:44.169Z,4.63
2019-02-22T12:54:25.472Z,3.60
2019-02-22T12:56:58.429Z,3.90
2019-02-22T12:59:29.023Z,4.20
2019-02-22T13:02:04.140Z,3.80
2019-02-22T13:04:36.632Z,5.30
2019-02-22T13:07:06.749Z,3.13
2019-02-22T13:09:37.160Z,3.83
2019-02-22T13:12:14.126Z,3.73
2019-02-22T13:14:40.209Z,4.13
2019-02-22T13:17:12.258Z,3.37
2019-02-22T13:19:42.373Z,3.33
2019-02-22T13:22:15.739Z,3.73
2019-02-22T13:24:47.836Z,3.70
2019-02-22T13:27:18.139Z,5.40
2019-02-22T13:29:48.281Z,5.00
2019-02-22T13:32:19.415Z,3.50
2019-02-22T13:34:50.572Z,3.20
2019-02-22T13:37:21.599Z,4.20
2019-02-22T13:39:51.683Z,4.50
2019-02-22T13:42:24.828Z,5.47
2019-02-22T13:45:03.905Z,3.10
2019-02-22T13:47:34.028Z,5.17
2019-02-22T13:50:15.774Z,4.33
2019-02-22T13:52:45.868Z,7.03
2019-02-22T13:55:16.129Z,5.77
2019-02-22T13:57:46.242Z,3.90
2019-02-22T14:00:23.216Z,3.70
2019-02-22T14:03:05.132Z,3.93
2019-02-22T14:05:40.213Z,4.43
2019-02-22T14:08:12.318Z,3.93
2019-02-22T14:10:45.473Z,2.90
2019-02-22T14:13:16.552Z,3.50
2019-02-22T14:15:46.664Z,3.63
2019-02-22T14:18:18.332Z,3.27
2019-02-22T14:20:48.504Z,3.80
2019-02-22T14:23:19.492Z,2.70
2019-02-22T14:25:49.890Z,2.57
2019-02-22T14:28:20.002Z,3.13
2019-02-22T14:30:59.264Z,5.20
2019-02-22T14:33:29.788Z,2.97
2019-02-22T14:35:59.872Z,2.63
2019-02-22T14:38:31.188Z,2.57
2019-02-22T14:41:02.256Z,3.80
2019-02-22T14:43:32.368Z,3.40
2019-02-22T14:46:08.536Z,2.65
2019-02-22T14:48:39.184Z,3.23
2019-02-22T14:51:10.175Z,3.73
2019-02-22T14:53:40.260Z,4.93
2019-02-22T14:56:10.360Z,3.23
2019-02-22T14:58:44.550Z,2.53
2019-02-22T15:01:14.668Z,5.85
2019-02-22T15:03:46.712Z,4.20
2019-02-22T15:06:27.440Z,6.62
2019-02-22T15:08:57.524Z,3.90
2019-02-22T15:11:27.646Z,4.78
2019-02-22T15:13:57.728Z,3.77
2019-02-22T15:16:46.652Z,3.58
2019-02-22T15:19:17.712Z,3.33
2019-02-22T15:21:49.157Z,3.97
2019-02-22T15:24:19.235Z,2.93
2019-02-22T15:26:53.925Z,3.70
2019-02-22T15:29:23.800Z,3.23
2019-02-22T15:32:05.972Z,4.05
2019-02-22T15:34:37.012Z,3.40
2019-02-22T15:37:10.536Z,8.10
2019-02-22T15:39:42.665Z,7.53
2019-02-22T15:42:19.548Z,5.50
2019-02-22T15:44:55.504Z,7.93
2019-02-22T15:47:40.812Z,4.70
2019-02-22T15:50:17.152Z,4.53
2019-02-22T15:52:50.285Z,4.33
2019-02-22T15:55:26.228Z,4.80
2019-02-22T15:58:01.600Z,4.42
2019-02-22T16:00:39.938Z,2.77
2019-02-22T16:03:10.041Z,2.75
2019-02-22T16:05:41.807Z,3.92
2019-02-22T16:08:11.868Z,2.95
2019-02-22T16:10:47.908Z,3.00
2019-02-22T16:13:18.076Z,3.10
2019-02-22T16:15:50.100Z,3.20
2019-02-22T16:18:20.184Z,2.98
2019-02-22T16:20:56.185Z,3.08
2019-02-22T16:23:26.276Z,4.55
2019-02-22T16:26:00.176Z,5.03
2019-02-22T16:28:31.252Z,3.50
2019-02-22T16:31:01.382Z,3.52
2019-02-22T16:33:32.377Z,3.50
2019-02-22T16:36:03.428Z,4.17
2019-02-22T16:38:33.512Z,4.40
2019-02-22T16:41:04.583Z,5.58
2019-02-22T16:43:40.517Z,3.65
2019-02-22T16:46:10.596Z,4.75
2019-02-22T16:48:40.688Z,6.58
2019-02-22T16:51:10.784Z,8.03
2019-02-22T16:53:40.875Z,6.25
2019-02-22T16:56:10.988Z,5.87
2019-02-22T16:58:45.044Z,4.00
2019-02-22T17:01:16.072Z,4.50
2019-02-22T17:03:46.152Z,4.12
2019-02-22T17:06:26.250Z,3.45
2019-02-22T17:08:56.372Z,3.67
2019-02-22T17:11:33.248Z,3.35
2019-02-22T17:14:04.368Z,5.37
2019-02-22T17:16:45.826Z,4.67
2019-02-22T17:19:12.004Z,8.00
2019-02-22T17:21:42.080Z,5.12
2019-02-22T17:24:12.168Z,5.53
2019-02-22T17:26:43.158Z,5.90
2019-02-22T17:29:14.248Z,3.30
2019-02-22T17:31:44.328Z,6.45
2019-02-22T17:34:14.400Z,3.40
2019-02-22T17:36:46.432Z,4.12
2019-02-22T17:39:16.492Z,5.00
2019-02-22T17:41:48.509Z,4.75
2019-02-22T17:44:18.612Z,4.15
2019-02-22T17:46:57.564Z,5.42
2019-02-22T17:49:23.444Z,4.87
2019-02-22T17:51:54.737Z,6.35
2019-02-22T17:54:24.872Z,4.92
2019-02-22T17:56:59.163Z,5.62
2019-02-22T17:59:46.536Z,6.00
2019-02-22T18:02:22.412Z,5.10
2019-02-22T18:04:53.404Z,6.78
2019-02-22T18:07:25.421Z,6.80
2019-02-22T18:09:56.388Z,4.42
2019-02-22T18:12:26.493Z,6.12
2019-02-22T18:15:02.360Z,5.78
2019-02-22T18:17:36.592Z,6.17
2019-02-22T18:20:10.860Z,7.05
2019-02-22T18:22:43.196Z,7.85
2019-02-22T18:25:13.781Z,7.22
2019-02-22T18:27:44.882Z,7.72
2019-02-22T18:30:21.993Z,7.53
2019-02-22T18:32:52.075Z,8.25
2019-02-22T18:35:25.192Z,9.50
2019-02-22T18:37:57.276Z,7.47
2019-02-22T18:40:28.244Z,8.78
2019-02-22T18:43:05.344Z,7.65
2019-02-22T18:45:35.416Z,8.95
2019-02-22T18:48:07.452Z,8.25
2019-02-22T18:50:40.088Z,8.83
2019-02-22T18:53:13.772Z,8.48
2019-02-22T18:55:50.094Z,9.95
2019-02-22T18:58:15.616Z,9.33
2019-02-22T19:00:45.704Z,8.83
2019-02-22T19:03:15.780Z,10.18
2019-02-22T19:05:45.881Z,9.18
2019-02-22T19:08:15.980Z,7.85
2019-02-22T19:10:46.061Z,8.83
2019-02-22T19:13:16.156Z,8.68
2019-02-22T19:15:48.224Z,8.00
2019-02-22T19:18:22.321Z,8.48
2019-02-22T19:20:53.352Z,9.03
2019-02-22T19:23:23.416Z,8.15
2019-02-22T19:25:55.504Z,8.25
2019-02-22T19:28:28.160Z,6.47
2019-02-22T19:31:01.298Z,9.93
2019-02-22T19:33:35.679Z,10.63
2019-02-22T19:36:06.661Z,11.45
2019-02-22T19:38:37.692Z,9.05
2019-02-22T19:41:07.764Z,10.18
2019-02-22T19:43:38.880Z,12.53
2019-02-22T19:46:09.038Z,12.10
2019-02-22T19:48:40.108Z,12.88
2019-02-22T19:51:10.260Z,19.45
2019-02-22T19:53:41.308Z,12.73
2019-02-22T19:56:11.529Z,16.67
2019-02-22T19:58:45.332Z,11.20
2019-02-22T20:01:15.441Z,10.13
2019-02-22T20:03:45.551Z,9.25
2019-02-22T20:06:15.786Z,8.78
2019-02-22T20:08:46.048Z,10.75
2019-02-22T20:11:18.204Z,17.10
2019-02-22T20:13:48.328Z,13.28
2019-02-22T20:16:20.644Z,10.55
2019-02-22T20:18:51.722Z,9.40
2019-02-22T20:21:24.908Z,9.28
2019-02-22T20:23:55.016Z,10.18
2019-02-22T20:26:27.140Z,10.60
2019-02-22T20:29:05.892Z,9.08
2019-02-22T20:31:36.242Z,10.10
2019-02-22T20:34:06.359Z,10.98
2019-02-22T20:36:40.384Z,8.55
2019-02-22T20:39:16.552Z,8.58
2019-02-22T20:41:47.041Z,11.40
2019-02-22T20:44:17.290Z,8.78
2019-02-22T20:46:47.400Z,12.40
2019-02-22T20:49:23.688Z,10.35
2019-02-22T20:51:55.792Z,13.58
2019-02-22T20:54:26.840Z,12.33
2019-02-22T20:56:57.065Z,13.13
2019-02-22T20:59:27.140Z,11.08
2019-02-22T21:02:16.592Z,13.18
2019-02-22T21:04:47.666Z,14.58
2019-02-22T21:07:17.748Z,13.75
2019-02-22T21:09:49.744Z,14.87
2019-02-22T21:12:23.652Z,12.43
2019-02-22T21:14:53.749Z,11.97
2019-02-22T21:17:25.736Z,13.35
2019-02-22T21:20:04.112Z,14.73
2019-02-22T21:22:41.292Z,11.45
2019-02-22T21:25:12.544Z,14.47
2019-02-22T21:27:42.716Z,14.33
2019-02-22T21:30:19.028Z,14.25
2019-02-22T21:32:50.105Z,12.60
2019-02-22T21:35:20.188Z,12.35
2019-02-22T21:37:54.268Z,13.43
2019-02-22T21:40:30.104Z,17.70
2019-02-22T21:43:00.224Z,15.23
2019-02-22T21:45:33.812Z,12.90
2019-02-22T21:48:03.893Z,15.75
2019-02-22T21:50:34.959Z,16.75
2019-02-22T21:53:05.944Z,15.13
2019-02-22T21:55:36.028Z,17.32
2019-02-22T21:58:06.109Z,15.08
2019-02-22T22:00:36.280Z,17.55
2019-02-22T22:03:06.371Z,17.48
2019-02-22T22:05:37.429Z,16.30
2019-02-22T22:08:09.500Z,17.52
2019-02-22T22:10:42.608Z,16.45
2019-02-22T22:13:12.685Z,21.90
2019-02-22T22:15:42.778Z,16.55
2019-02-22T22:18:12.884Z,16.32
2019-02-22T22:20:43.903Z,23.98
2019-02-22T22:23:15.944Z,17.92
2019-02-22T22:25:47.992Z,19.50
2019-02-22T22:28:18.084Z,21.93
2019-02-22T22:30:48.324Z,19.52
2019-02-22T22:33:20.431Z,24.02
2019-02-22T22:35:50.544Z,19.77
2019-02-22T22:38:21.544Z,22.45
2019-02-22T22:40:52.603Z,24.18
2019-02-22T22:43:22.712Z,21.77
2019-02-22T22:45:56.445Z,21.62
2019-02-22T22:48:27.460Z,23.15
2019-02-22T22:50:57.548Z,19.42
2019-02-22T22:53:28.620Z,25.17
2019-02-22T22:55:58.708Z,20.05
2019-02-22T22:58:28.792Z,21.23
2019-02-22T23:01:06.342Z,23.22
2019-02-22T23:03:36.649Z,22.02
2019-02-22T23:06:06.788Z,20.12
2019-02-22T23:08:36.871Z,20.65
2019-02-22T23:11:12.840Z,20.32
2019-02-22T23:13:43.841Z,18.45
2019-02-22T23:16:14.000Z,19.52
2019-02-22T23:18:44.084Z,18.12
2019-02-22T23:21:14.308Z,20.30
2019-02-22T23:23:46.288Z,24.45
2019-02-22T23:26:16.374Z,21.27
2019-02-22T23:28:46.488Z,18.87
2019-02-22T23:31:16.574Z,21.00
2019-02-22T23:33:46.676Z,22.87
2019-02-22T23:36:16.748Z,23.00
2019-02-22T23:38:48.780Z,21.57
2019-02-22T23:41:19.844Z,22.82
2019-02-22T23:43:50.852Z,19.35
2019-02-22T23:46:21.004Z,20.35
2019-02-22T23:48:52.044Z,20.68
2019-02-22T23:51:23.084Z,21.48
2019-02-22T23:53:54.094Z,23.40
2019-02-22T23:56:24.188Z,21.25
2019-02-22T23:58:54.268Z,20.52
